createdAt,value
2022-08-31T02:22:49.495Z,-30
2022-08-31T03:57:35.839Z,16.6
2022-08-31T04:08:49.612Z,16.6
2022-08-31T04:14:21.489Z,16.6
2022-08-31T04:31:09.621Z,16.6
2022-08-31T04:36:50.224Z,16.5
2022-08-31T04:42:40.980Z,16.6
2022-08-31T04:48:00.197Z,16.5
2022-08-31T04:53:39.648Z,16.6
2022-08-31T05:26:59.700Z,16.6
2022-08-31T09:05:45.402Z,19.8
2022-08-31T09:17:08.662Z,20.2
2022-08-31T09:22:37.919Z,20.2
2022-08-31T09:28:28.815Z,19.6
2022-08-31T09:50:54.344Z,20.1
2022-08-31T10:01:51.610Z,19.8
2022-08-31T10:07:38.274Z,19.7
2022-08-31T10:13:31.702Z,19
2022-08-31T10:19:02.310Z,19
2022-08-31T10:24:21.148Z,19
2022-08-31T10:30:03.715Z,19.9
2022-08-31T10:35:43.232Z,20.3
2022-08-31T10:41:26.728Z,20.6
2022-08-31T10:47:14.152Z,20.2
2022-08-31T10:52:21.862Z,20
2022-08-31T10:58:01.004Z,20.2
2022-08-31T11:03:55.888Z,20.6
2022-08-31T11:09:14.717Z,20.4
2022-08-31T11:14:51.162Z,20.7
2022-08-31T11:20:48.210Z,20.6
2022-08-31T11:26:11.304Z,21
2022-08-31T11:32:01.959Z,20.5
2022-08-31T11:37:24.676Z,20.6
2022-08-31T11:43:15.609Z,20.6
2022-08-31T11:48:39.479Z,20.7
2022-08-31T11:54:34.658Z,21.1
2022-08-31T12:00:02.208Z,21.5
2022-08-31T12:05:40.707Z,21.4
2022-08-31T12:11:18.774Z,21.2
2022-08-31T12:16:47.355Z,21.1
2022-08-31T12:22:29.820Z,21.6
2022-08-31T12:28:27.515Z,21.2
2022-08-31T12:33:46.052Z,21.6
2022-08-31T12:39:23.160Z,21.3
2022-08-31T12:50:50.553Z,21.5
2022-08-31T12:56:26.695Z,21.6
2022-08-31T13:02:03.338Z,22
2022-08-31T13:07:38.346Z,22.2
2022-08-31T13:13:28.652Z,22.5
2022-08-31T13:19:02.866Z,22.6
2022-08-31T13:24:53.569Z,22.2
2022-08-31T13:30:08.861Z,22.7
2022-08-31T13:36:04.997Z,22.3
2022-08-31T13:41:40.151Z,22.3
2022-08-31T13:47:03.287Z,22.4
2022-08-31T13:52:42.058Z,22.4
2022-08-31T13:58:28.005Z,22.2
2022-08-31T14:04:10.638Z,22.1
2022-08-31T14:09:55.605Z,22.1
2022-08-31T14:21:19.801Z,22.2
2022-08-31T14:26:39.786Z,22.2
2022-08-31T14:32:38.237Z,22.6
2022-08-31T14:37:57.468Z,22.3
2022-08-31T14:49:24.678Z,22.4
2022-08-31T14:55:06.234Z,22.7
2022-08-31T15:00:39.837Z,22.5
2022-08-31T15:06:08.002Z,22.4
2022-08-31T15:11:55.358Z,22.6
2022-08-31T15:17:23.933Z,22.4
2022-08-31T15:23:11.439Z,22.5
2022-08-31T15:28:52.683Z,22.5
2022-08-31T15:34:19.818Z,22.3
2022-08-31T15:40:21.739Z,22.4
2022-08-31T15:45:31.106Z,22.1
2022-08-31T15:51:09.617Z,22
2022-08-31T15:57:12.473Z,21.8
2022-08-31T16:02:46.425Z,21.8
2022-08-31T16:08:05.737Z,21.7
2022-08-31T16:13:57.088Z,21.8
2022-08-31T16:19:35.319Z,21.7
2022-08-31T16:25:00.560Z,21.6
2022-08-31T16:30:22.609Z,21.5
2022-08-31T16:36:02.824Z,21.5
2022-08-31T16:41:51.210Z,21.6
2022-08-31T16:47:20.784Z,21.6
2022-08-31T16:53:01.295Z,21.4
2022-08-31T16:58:51.615Z,21.1
2022-08-31T17:04:11.778Z,21.2
2022-08-31T17:10:10.856Z,21
2022-08-31T17:15:43.477Z,21
2022-08-31T17:21:18.229Z,20.8
2022-08-31T17:26:44.664Z,20.6
2022-08-31T17:32:44.966Z,20.4
2022-08-31T17:38:19.411Z,20.2
2022-08-31T17:43:52.164Z,19.9
2022-08-31T17:49:26.848Z,19.9
2022-08-31T17:55:03.898Z,19.6
2022-08-31T18:00:19.005Z,19.5
2022-08-31T18:05:50.814Z,19.3
2022-08-31T18:11:54.255Z,19
2022-08-31T18:17:07.187Z,18.8
2022-08-31T18:22:56.375Z,18.8
2022-08-31T18:28:33.660Z,18.7
2022-08-31T18:34:15.256Z,18.7
2022-08-31T18:39:50.894Z,18.5
2022-08-31T18:45:07.423Z,18.5
2022-08-31T18:50:59.802Z,18.6
2022-08-31T18:56:31.363Z,18.5
2022-08-31T19:02:00.698Z,18.4
2022-08-31T19:07:43.731Z,18.2
2022-08-31T19:12:56.214Z,18.1
2022-08-31T19:18:36.404Z,18
2022-08-31T19:24:27.784Z,18
2022-08-31T19:29:57.641Z,17.9
2022-08-31T19:35:33.428Z,17.9
2022-08-31T19:40:54.376Z,17.9
2022-08-31T19:46:52.387Z,17.7
2022-08-31T19:52:12.983Z,17.6
2022-08-31T19:57:53.638Z,17.6
2022-08-31T20:03:22.114Z,17.3
2022-08-31T20:08:39.100Z,17.3
2022-08-31T20:14:16.803Z,17.5
2022-08-31T20:19:58.632Z,17.6
2022-08-31T20:31:11.801Z,17.5
2022-08-31T20:42:31.103Z,17.4
2022-08-31T21:26:51.832Z,15.3
2022-08-31T22:05:56.884Z,16.5
2022-08-31T22:22:55.889Z,16.2
2022-08-31T22:33:59.337Z,16
2022-08-31T22:45:24.683Z,15.9
2022-08-31T22:50:38.377Z,15.8
2022-08-31T23:01:53.405Z,15.7
2022-08-31T23:07:38.469Z,15.4
2022-08-31T23:12:56.332Z,15.4
